Time;durP1;ratioP1;P1;durP2;ratioP2;P2;SDS_P1;SDS_P2;PMS_P1;PMS_P2;Temp;Humidity;BMP_temperature;BMP_pressure;BME280_temperature;BME280_humidity;BME280_pressure;Samples;Min_cycle;Max_cycle;Signal;HPM_P1;HPM_P2
2022/07/16 00:02:34;;;;;;;4.45;1.75;;;;;;;20.53;48.50;94053.06;5122917;28;20084;-76
2022/07/16 00:04:59;;;;;;;3.90;1.42;;;;;;;20.49;48.66;94057.69;5122758;28;20336;-76
2022/07/16 00:07:25;;;;;;;4.03;1.60;;;;;;;20.44;48.50;94047.19;5122612;28;20027;-76
2022/07/16 00:09:50;;;;;;;2.05;1.40;;;;;;;20.41;48.60;94048.72;5122545;28;20057;-75
2022/07/16 00:12:16;;;;;;;6.53;1.48;;;;;;;20.40;48.66;94052.56;5122604;28;20012;-76
2022/07/16 00:14:42;;;;;;;3.15;1.40;;;;;;;20.36;48.42;94051.75;5122537;28;20019;-76
2022/07/16 00:17:07;;;;;;;3.85;1.02;;;;;;;20.27;49.03;94048.53;5122064;28;20084;-76
2022/07/16 00:19:33;;;;;;;2.78;1.45;;;;;;;20.26;49.32;94048.94;5122933;28;20083;-76
2022/07/16 00:21:58;;;;;;;3.25;1.60;;;;;;;20.24;48.79;94036.53;5122522;28;20024;-76
2022/07/16 00:24:25;;;;;;;4.88;2.10;;;;;;;20.19;48.75;94036.88;5122536;28;20031;-76
2022/07/16 00:26:50;;;;;;;8.13;1.77;;;;;;;20.12;48.57;94042.19;5122367;28;20027;-76
2022/07/16 00:29:18;;;;;;;6.78;1.38;;;;;;;20.05;49.05;94036.72;5121364;28;20117;-76
2022/07/16 00:31:44;;;;;;;2.65;1.38;;;;;;;20.07;49.07;94031.72;5122409;28;20046;-76
2022/07/16 00:34:10;;;;;;;6.43;2.20;;;;;;;20.01;48.88;94036.66;5122357;28;20024;-76
2022/07/16 00:36:37;;;;;;;6.25;1.38;;;;;;;20.03;49.24;94022.78;5123069;28;20110;-76
2022/07/16 00:39:06;;;;;;;7.25;1.40;;;;;;;20.02;48.52;94037.44;5126184;28;20020;-76
2022/07/16 00:41:32;;;;;;;2.78;1.08;;;;;;;20.04;47.95;94030.50;5124821;28;20054;-76
2022/07/16 00:44:05;;;;;;;3.28;0.80;;;;;;;20.10;46.88;94038.31;5126154;28;20225;-75
2022/07/16 00:46:30;;;;;;;;;;;;;;;20.13;46.84;94032.94;5126274;28;20024;-75
2022/07/16 00:48:56;;;;;;;4.32;1.40;;;;;;;20.14;47.50;94037.19;5125901;28;19946;-75
2022/07/16 00:51:23;;;;;;;1.80;1.10;;;;;;;20.16;47.34;94036.84;5125781;28;20027;-76
2022/07/16 00:53:49;;;;;;;5.50;1.42;;;;;;;20.18;46.58;94040.72;5125940;28;20043;-76
2022/07/16 00:56:16;;;;;;;2.25;1.20;;;;;;;20.24;46.00;94041.19;5125569;28;20072;-75
2022/07/16 00:58:44;;;;;;;2.95;1.50;;;;;;;20.28;45.84;94043.94;5125769;28;20047;-75
2022/07/16 01:01:11;;;;;;;3.25;1.60;;;;;;;20.31;45.44;94043.19;5125655;27;20023;-75
2022/07/16 01:03:37;;;;;;;5.15;1.50;;;;;;;20.38;45.43;94048.69;5125815;27;20016;-75
2022/07/16 01:06:05;;;;;;;3.00;1.40;;;;;;;20.40;45.02;94051.78;5124490;28;20206;-75
2022/07/16 01:08:33;;;;;;;5.68;1.42;;;;;;;20.37;45.53;94047.91;5125561;27;20044;-75
2022/07/16 01:10:59;;;;;;;2.03;1.23;;;;;;;20.37;45.98;94039.00;5125606;28;20020;-75
2022/07/16 01:13:25;;;;;;;7.65;1.60;;;;;;;20.37;46.92;94052.53;5125321;28;20090;-75
2022/07/16 01:15:51;;;;;;;2.72;1.40;;;;;;;20.37;46.54;94047.09;5125294;28;20069;-75
2022/07/16 01:18:16;;;;;;;2.20;1.20;;;;;;;20.31;47.85;94043.94;5125421;28;20019;-75
2022/07/16 01:20:42;;;;;;;3.85;1.23;;;;;;;20.28;47.69;94055.53;5125155;28;20016;-75
2022/07/16 01:23:08;;;;;;;3.08;1.60;;;;;;;20.26;46.55;94041.59;5125347;28;20329;-75
2022/07/16 01:25:33;;;;;;;4.63;1.50;;;;;;;20.23;46.67;94051.22;5125443;28;20273;-75
2022/07/16 01:27:59;;;;;;;6.38;1.88;;;;;;;20.18;47.16;94043.44;5125181;28;20012;-75
2022/07/16 01:30:25;;;;;;;3.33;1.30;;;;;;;20.18;48.65;94051.53;5125301;28;20026;-75
2022/07/16 01:32:50;;;;;;;3.20;1.48;;;;;;;20.15;49.10;94049.59;5125075;27;20019;-76
2022/07/16 01:35:16;;;;;;;5.97;1.75;;;;;;;20.06;49.16;94046.38;5125203;27;20027;-76
2022/07/16 01:37:42;;;;;;;3.28;2.13;;;;;;;19.99;48.69;94049.00;5124770;28;20309;-75
2022/07/16 01:40:07;;;;;;;3.47;1.55;;;;;;;19.96;48.75;94052.44;5125391;28;20222;-75
2022/07/16 01:42:33;;;;;;;13.38;1.67;;;;;;;19.88;49.63;94048.09;5125049;28;20028;-75
2022/07/16 01:45:00;;;;;;;10.68;1.70;;;;;;;19.88;50.21;94048.09;5124797;28;20336;-75
2022/07/16 01:47:25;;;;;;;3.65;1.65;;;;;;;19.82;50.61;94044.91;5124832;28;20020;-75
2022/07/16 01:49:51;;;;;;;2.22;1.30;;;;;;;19.77;50.84;94040.63;5124162;28;20030;-75
2022/07/16 01:52:19;;;;;;;2.30;1.40;;;;;;;19.69;50.82;94047.06;5124710;28;20054;-75
2022/07/16 01:54:48;;;;;;;3.22;1.67;;;;;;;19.60;50.75;94044.63;5124558;28;20423;-75
2022/07/16 01:57:14;;;;;;;2.50;1.63;;;;;;;19.56;51.24;94045.69;5124439;28;20072;-75
2022/07/16 01:59:40;;;;;;;2.83;1.25;;;;;;;19.51;51.88;94046.03;5124571;28;20027;-76
2022/07/16 02:02:06;;;;;;;9.90;1.73;;;;;;;19.47;52.23;94053.31;5124585;27;20023;-76
2022/07/16 02:04:32;;;;;;;4.80;1.65;;;;;;;19.38;51.96;94057.06;5124564;28;20361;-76
2022/07/16 02:06:57;;;;;;;5.75;1.80;;;;;;;19.35;52.09;94057.78;5124443;28;20015;-76
2022/07/16 02:09:23;;;;;;;2.92;1.63;;;;;;;19.32;51.70;94061.22;5124144;28;20023;-76
2022/07/16 02:11:48;;;;;;;3.47;1.70;;;;;;;19.26;51.78;94068.06;5124533;28;20202;-76
2022/07/16 02:14:14;;;;;;;4.07;1.60;;;;;;;19.19;52.28;94062.53;5124396;28;20016;-75
2022/07/16 02:16:39;;;;;;;5.75;1.52;;;;;;;19.14;52.50;94066.34;5123943;28;20352;-75
2022/07/16 02:19:05;;;;;;;1.77;1.20;;;;;;;19.14;52.43;94076.38;5124090;28;20020;-75
2022/07/16 02:21:31;;;;;;;3.15;1.27;;;;;;;19.11;51.34;94074.38;5124069;28;20043;-75
2022/07/16 02:23:57;;;;;;;6.93;1.80;;;;;;;19.10;50.79;94083.63;5124175;28;20049;-75
2022/07/16 02:26:22;;;;;;;3.75;1.60;;;;;;;19.04;51.26;94075.81;5124126;28;20027;-76
2022/07/16 02:28:48;;;;;;;2.35;1.50;;;;;;;19.00;51.58;94076.91;5124162;27;20218;-75
2022/07/16 02:31:13;;;;;;;2.63;1.55;;;;;;;18.92;51.84;94086.81;5123918;28;20369;-75
2022/07/16 02:33:39;;;;;;;5.50;1.70;;;;;;;18.92;51.71;94089.50;5124145;28;20047;-76
2022/07/16 02:36:05;;;;;;;6.05;1.80;;;;;;;18.88;52.21;94091.38;5122601;28;20084;-75
2022/07/16 02:38:30;;;;;;;4.07;2.03;;;;;;;18.85;52.57;94086.72;5123789;27;20023;-76
2022/07/16 02:40:56;;;;;;;6.78;2.45;;;;;;;18.84;53.11;94087.84;5123618;28;20038;-76
2022/07/16 02:43:21;;;;;;;5.78;2.22;;;;;;;18.79;53.69;94088.16;5123790;28;20023;-76
2022/07/16 02:45:47;;;;;;;5.57;1.80;;;;;;;18.75;54.76;94084.56;5123750;27;20050;-76
2022/07/16 02:48:12;;;;;;;5.93;1.52;;;;;;;18.71;54.68;94071.00;5123363;28;20024;-76
2022/07/16 02:50:39;;;;;;;4.97;1.77;;;;;;;18.71;54.32;94075.63;5122878;28;20108;-76
2022/07/16 02:53:04;;;;;;;3.97;2.10;;;;;;;18.70;54.86;94071.34;5122542;28;20076;-76
2022/07/16 02:55:30;;;;;;;14.90;1.85;;;;;;;18.71;55.26;94065.59;5123578;28;20024;-76
2022/07/16 02:57:56;;;;;;;9.07;1.95;;;;;;;18.68;55.16;94070.94;5123616;28;20092;-76
2022/07/16 03:00:22;;;;;;;2.90;1.35;;;;;;;18.63;54.57;94074.72;5122538;28;20023;-76
2022/07/16 03:02:47;;;;;;;4.18;1.98;;;;;;;18.62;54.37;94081.25;5123442;28;20019;-75
2022/07/16 03:05:14;;;;;;;3.80;1.42;;;;;;;18.58;54.74;94083.09;5123423;28;20031;-76
2022/07/16 03:07:40;;;;;;;3.55;1.50;;;;;;;18.54;54.08;94088.44;5123434;28;20012;-76
2022/07/16 03:10:07;;;;;;;8.93;2.13;;;;;;;18.52;53.81;94079.13;5123677;28;20023;-76
2022/07/16 03:12:33;;;;;;;8.38;2.10;;;;;;;18.48;54.08;94075.59;5123216;28;20229;-76
2022/07/16 03:14:59;;;;;;;2.88;1.70;;;;;;;18.42;54.10;94089.38;5123255;28;20026;-77
2022/07/16 03:17:24;;;;;;;2.88;1.42;;;;;;;18.42;53.46;94088.63;5123029;28;20027;-77
2022/07/16 03:19:50;;;;;;;3.92;1.60;;;;;;;18.40;53.81;94093.59;5123147;28;20317;-76
2022/07/16 03:22:17;;;;;;;4.15;1.70;;;;;;;18.40;53.82;94088.97;5123042;28;20171;-76
2022/07/16 03:24:43;;;;;;;2.88;1.40;;;;;;;18.40;54.18;94090.88;5122924;28;20054;-76
2022/07/16 03:27:09;;;;;;;3.92;2.10;;;;;;;18.41;55.12;94095.13;5123290;28;20023;-76
2022/07/16 03:29:34;;;;;;;5.88;2.08;;;;;;;18.43;55.91;94095.56;5123117;28;20022;-75
2022/07/16 03:32:00;;;;;;;9.30;2.22;;;;;;;18.40;56.27;94090.88;5122878;28;20348;-75
2022/07/16 03:34:25;;;;;;;4.05;1.95;;;;;;;18.38;56.61;94095.88;5123001;28;20023;-76
2022/07/16 03:36:51;;;;;;;4.47;2.00;;;;;;;18.39;56.25;94102.81;5122887;28;20024;-76
2022/07/16 03:39:16;;;;;;;4.13;1.85;;;;;;;18.40;56.95;94110.56;5122905;28;20292;-76
2022/07/16 03:41:42;;;;;;;5.43;1.95;;;;;;;18.46;57.25;94102.94;5122657;28;20065;-76
2022/07/16 03:44:11;;;;;;;6.55;1.90;;;;;;;18.49;57.14;94113.03;5122990;28;20019;-76
2022/07/16 03:46:38;;;;;;;2.75;2.00;;;;;;;18.51;57.18;94120.78;5122947;28;20060;-75
2022/07/16 03:49:04;;;;;;;6.00;2.20;;;;;;;18.52;55.98;94117.72;5122687;28;20027;-76
2022/07/16 03:51:29;;;;;;;4.63;2.00;;;;;;;18.56;55.76;94115.88;5122841;28;20034;-76
2022/07/16 03:53:55;;;;;;;4.55;2.75;;;;;;;18.58;56.20;94119.00;5122761;28;20019;-76
2022/07/16 03:56:21;;;;;;;3.72;1.98;;;;;;;18.60;55.16;94122.13;5122679;28;20030;-76
2022/07/16 03:58:46;;;;;;;6.07;2.22;;;;;;;18.64;54.90;94114.06;5122668;28;20053;-76
2022/07/16 04:01:12;;;;;;;4.85;1.75;;;;;;;18.69;54.75;94115.72;5122780;28;20020;-76
2022/07/16 04:03:38;;;;;;;4.80;2.13;;;;;;;18.76;54.55;94113.91;5122792;28;20015;-77
2022/07/16 04:06:04;;;;;;;6.00;2.10;;;;;;;18.76;55.09;94110.41;5122685;28;20090;-75
2022/07/16 04:08:30;;;;;;;4.28;2.55;;;;;;;18.84;54.55;94106.72;5122860;28;20023;-76
2022/07/16 04:10:56;;;;;;;3.20;2.00;;;;;;;18.94;55.32;94105.38;5122882;28;20024;-76
2022/07/16 04:13:22;;;;;;;6.97;2.38;;;;;;;19.00;54.68;94104.69;5126137;28;20042;-77
2022/07/16 04:15:48;;;;;;;6.65;3.22;;;;;;;19.07;54.26;94103.25;5126562;28;20043;-77
2022/07/16 04:18:14;;;;;;;3.47;2.03;;;;;;;19.13;54.47;94112.63;5126569;28;20069;-76
2022/07/16 04:20:40;;;;;;;4.72;1.63;;;;;;;19.22;54.98;94110.47;5126791;28;20024;-76
2022/07/16 04:23:06;;;;;;;5.75;2.55;;;;;;;19.29;55.16;94096.28;5126396;27;20027;-76
2022/07/16 04:25:32;;;;;;;9.73;2.15;;;;;;;19.38;54.69;94103.00;5126592;28;20027;-76
2022/07/16 04:27:57;;;;;;;4.78;1.60;;;;;;;19.47;54.24;94110.06;5126315;28;20016;-76
2022/07/16 04:30:23;;;;;;;4.07;2.05;;;;;;;19.58;53.70;94111.00;5126269;28;20052;-75
2022/07/16 04:32:49;;;;;;;6.22;2.45;;;;;;;19.67;54.56;94108.81;5126232;28;20030;-76
2022/07/16 04:35:14;;;;;;;13.90;2.80;;;;;;;19.78;55.00;94109.81;5126213;28;20049;-76
2022/07/16 04:37:40;;;;;;;8.73;2.10;;;;;;;19.90;55.95;94121.53;5126276;28;20019;-76
2022/07/16 04:40:08;;;;;;;6.10;2.20;;;;;;;19.95;55.63;94111.19;5126235;28;20035;-76
2022/07/16 04:42:35;;;;;;;15.05;2.88;;;;;;;20.01;54.41;94127.88;5125968;28;20038;-76
2022/07/16 04:45:01;;;;;;;9.23;2.80;;;;;;;20.06;53.87;94119.44;5126033;28;20069;-76
2022/07/16 04:47:26;;;;;;;12.52;2.90;;;;;;;20.17;54.69;94128.47;5125795;28;20024;-76
2022/07/16 04:49:52;;;;;;;14.90;3.22;;;;;;;20.26;54.67;94138.25;5125963;28;20214;-76
2022/07/16 04:52:17;;;;;;;16.00;3.00;;;;;;;20.33;54.08;94130.19;5125903;28;20182;-76
2022/07/16 04:54:43;;;;;;;7.65;2.30;;;;;;;20.39;53.76;94142.25;5125741;28;20035;-76
2022/07/16 04:57:08;;;;;;;9.48;2.92;;;;;;;20.46;53.43;94136.94;5125978;28;20019;-76
2022/07/16 04:59:34;;;;;;;6.05;2.83;;;;;;;20.52;52.93;94140.88;5125745;28;20053;-76
2022/07/16 05:04:43;;;;;;;8.68;3.78;;;;;;;20.61;53.39;94141.38;5125771;28;20057;-76
2022/07/16 05:07:09;;;;;;;9.88;3.58;;;;;;;20.69;54.01;94133.34;5125857;28;20031;-76
2022/07/16 05:09:34;;;;;;;7.25;3.30;;;;;;;20.72;53.31;94132.59;5125457;27;20016;-75
2022/07/16 05:11:59;;;;;;;11.75;3.53;;;;;;;20.81;53.20;94135.81;5124233;28;20065;-76
2022/07/16 05:14:25;;;;;;;12.15;4.57;;;;;;;20.88;52.94;94141.28;5125305;28;20030;-76
2022/07/16 05:16:51;;;;;;;20.45;4.53;;;;;;;20.99;53.00;94130.56;5124988;28;20098;-75
2022/07/16 05:19:16;;;;;;;16.90;4.50;;;;;;;20.93;53.22;94132.84;5125375;28;20309;-76
2022/07/16 05:21:42;;;;;;;9.40;3.97;;;;;;;20.90;53.14;94138.22;5125533;27;20094;-76
2022/07/16 05:24:07;;;;;;;7.82;4.47;;;;;;;20.79;53.70;94138.09;5124277;28;20081;-76
2022/07/16 05:26:32;;;;;;;11.45;4.18;;;;;;;20.76;54.00;94144.25;5124997;28;20024;-76
2022/07/16 05:28:58;;;;;;;8.35;4.32;;;;;;;20.80;54.85;94139.66;5125349;28;20027;-76
2022/07/16 05:31:23;;;;;;;16.35;4.20;;;;;;;20.81;53.80;94143.94;5125130;28;20102;-76
2022/07/16 05:33:49;;;;;;;13.35;4.60;;;;;;;20.78;53.64;94147.38;5124834;28;20053;-76
2022/07/16 05:36:14;;;;;;;15.85;3.63;;;;;;;20.78;54.02;94140.03;5125325;27;20309;-77
2022/07/16 05:38:40;;;;;;;11.77;3.25;;;;;;;20.87;54.14;94141.69;5125213;28;20056;-76
2022/07/16 05:41:05;;;;;;;15.02;3.70;;;;;;;20.93;52.97;94137.47;5125220;28;20019;-76
2022/07/16 05:43:31;;;;;;;6.75;3.22;;;;;;;20.98;51.52;94139.84;5123722;28;20309;-75
2022/07/16 05:45:56;;;;;;;14.82;4.57;;;;;;;21.01;52.69;94145.31;5124971;28;20019;-76
2022/07/16 05:48:22;;;;;;;8.73;3.92;;;;;;;21.08;52.19;94149.22;5124851;28;20105;-74
2022/07/16 05:50:47;;;;;;;7.13;3.45;;;;;;;21.14;51.91;94145.03;5124689;28;20061;-76
2022/07/16 05:53:13;;;;;;;10.25;3.33;;;;;;;21.11;51.68;94159.34;5125053;28;20023;-75
2022/07/16 05:55:38;;;;;;;14.43;3.15;;;;;;;21.16;52.45;94161.69;5124723;28;20032;-75
2022/07/16 05:58:04;;;;;;;10.95;3.50;;;;;;;21.23;52.07;94161.78;5124507;28;20381;-76
2022/07/16 06:00:30;;;;;;;12.35;3.30;;;;;;;21.19;52.06;94161.72;5124388;28;20081;-75
2022/07/16 06:02:55;;;;;;;18.80;3.80;;;;;;;21.26;52.00;94162.94;5124602;28;20074;-74
2022/07/16 06:05:21;;;;;;;17.33;3.33;;;;;;;21.34;51.70;94168.06;5124482;28;20031;-76
2022/07/16 06:07:46;;;;;;;16.08;3.15;;;;;;;21.43;51.03;94155.00;5124388;28;20222;-76
2022/07/16 06:10:12;;;;;;;18.33;3.72;;;;;;;21.53;50.79;94156.22;5124657;28;20027;-76
2022/07/16 06:12:39;;;;;;;12.02;3.55;;;;;;;21.65;50.62;94155.16;5124280;28;20031;-76
2022/07/16 06:15:05;;;;;;;10.15;3.50;;;;;;;21.71;49.82;94153.66;5124159;28;20027;-76
2022/07/16 06:17:31;;;;;;;10.18;2.83;;;;;;;21.77;50.10;94146.72;5124007;28;20051;-76
2022/07/16 06:19:56;;;;;;;8.45;3.17;;;;;;;21.84;49.45;94154.94;5124340;28;20038;-76
2022/07/16 06:22:22;;;;;;;15.43;3.50;;;;;;;21.92;49.16;94154.94;5124213;28;20019;-76
2022/07/16 06:24:47;;;;;;;13.77;4.25;;;;;;;22.06;49.29;94152.31;5122839;28;20073;-76
2022/07/16 06:27:13;;;;;;;10.57;2.92;;;;;;;22.08;49.20;94146.53;5124276;28;20318;-76
2022/07/16 06:29:38;;;;;;;17.90;3.00;;;;;;;22.07;48.56;94145.75;5124255;28;20086;-76
2022/07/16 06:32:04;;;;;;;13.30;3.50;;;;;;;22.13;49.16;94143.47;5124123;28;20089;-76
2022/07/16 06:34:30;;;;;;;13.35;3.00;;;;;;;22.16;49.66;94135.31;5123964;28;20027;-76
2022/07/16 06:36:55;;;;;;;7.90;3.38;;;;;;;22.33;48.83;94139.34;5123982;28;20370;-75
2022/07/16 06:39:20;;;;;;;9.55;3.60;;;;;;;22.43;47.81;94141.31;5124025;28;20028;-75
2022/07/16 06:41:46;;;;;;;12.65;3.00;;;;;;;22.51;47.36;94142.13;5123968;28;20028;-77
2022/07/16 06:44:11;;;;;;;8.63;3.08;;;;;;;22.65;48.78;94144.09;5124036;28;20041;-75
2022/07/16 06:46:37;;;;;;;8.48;3.17;;;;;;;22.73;48.81;94155.78;5124136;28;20083;-76
2022/07/16 06:49:02;;;;;;;6.80;3.05;;;;;;;22.83;47.34;94146.88;5123728;28;20115;-76
2022/07/16 06:51:29;;;;;;;8.48;2.95;;;;;;;22.93;46.57;94143.41;5123735;28;20318;-76
2022/07/16 06:53:54;;;;;;;12.88;2.72;;;;;;;23.01;47.91;94150.44;5123734;28;20213;-76
2022/07/16 06:56:20;;;;;;;11.57;2.97;;;;;;;23.10;46.73;94157.44;5123626;28;20015;-76
2022/07/16 06:58:45;;;;;;;6.47;2.50;;;;;;;23.17;46.75;94157.47;5123874;28;20027;-76
2022/07/16 07:01:11;;;;;;;14.23;3.45;;;;;;;23.22;46.41;94148.91;5123461;28;20091;-76
2022/07/16 07:03:40;;;;;;;11.23;2.97;;;;;;;23.33;46.57;94154.38;5123590;28;20031;-76
2022/07/16 07:06:06;;;;;;;13.63;3.17;;;;;;;23.44;46.97;94155.16;5123542;28;20019;-76
2022/07/16 07:08:32;;;;;;;8.32;2.80;;;;;;;23.51;47.60;94157.09;5123468;28;20221;-76
2022/07/16 07:10:59;;;;;;;6.03;3.05;;;;;;;23.67;47.68;94156.72;5123488;28;20103;-76
2022/07/16 07:13:25;;;;;;;7.78;2.78;;;;;;;23.79;46.56;94148.97;5123364;28;20327;-76
2022/07/16 07:15:51;;;;;;;7.47;2.67;;;;;;;23.85;46.67;94159.47;5123258;28;20107;-76
2022/07/16 07:18:17;;;;;;;9.05;2.30;;;;;;;23.90;45.87;94159.06;5123097;28;20069;-76
2022/07/16 07:20:42;;;;;;;6.43;2.10;;;;;;;23.97;47.24;94153.59;5123227;28;20055;-76
2022/07/16 07:23:09;;;;;;;8.93;3.60;;;;;;;23.98;47.16;94144.28;5123161;28;20082;-76
2022/07/16 07:25:34;;;;;;;6.28;2.70;;;;;;;24.05;47.21;94154.38;5123242;28;20051;-76
2022/07/16 07:28:00;;;;;;;6.90;2.40;;;;;;;24.10;46.93;94154.75;5123124;28;20030;-76
2022/07/16 07:30:25;;;;;;;6.03;2.53;;;;;;;24.13;48.83;94148.53;5122888;28;20086;-76
2022/07/16 07:32:51;;;;;;;7.65;2.75;;;;;;;24.24;47.21;94145.75;5123004;28;20061;-76
2022/07/16 07:35:16;;;;;;;5.35;2.78;;;;;;;24.29;46.00;94153.53;5123590;28;20027;-76
2022/07/16 07:37:42;;;;;;;8.55;2.60;;;;;;;24.27;45.97;94155.88;5122914;28;20028;-76
2022/07/16 07:40:08;;;;;;;9.75;2.65;;;;;;;24.30;46.22;94148.88;5123115;28;20034;-76
2022/07/16 07:42:33;;;;;;;12.77;2.80;;;;;;;24.41;45.82;94161.28;5122915;28;20117;-76
2022/07/16 07:44:59;;;;;;;6.72;2.63;;;;;;;24.36;46.52;94158.97;5122967;28;20028;-76
2022/07/16 07:47:24;;;;;;;12.15;3.22;;;;;;;24.43;46.92;94166.34;5125074;28;20110;-76
2022/07/16 07:49:50;;;;;;;12.25;2.63;;;;;;;24.46;46.89;94160.09;5127420;28;20049;-76
2022/07/16 07:52:15;;;;;;;9.38;4.00;;;;;;;24.58;46.21;94169.81;5127438;28;20023;-76
2022/07/16 07:54:41;;;;;;;14.05;3.03;;;;;;;24.69;45.35;94165.13;5127242;28;20058;-76
2022/07/16 07:57:06;;;;;;;9.43;3.13;;;;;;;24.78;44.97;94165.44;5127196;28;20041;-76
2022/07/16 07:59:32;;;;;;;8.63;4.07;;;;;;;24.94;44.67;94167.72;5127410;28;20030;-76
2022/07/16 08:01:57;;;;;;;13.13;5.50;;;;;;;24.97;42.91;94175.13;5127120;28;20361;-76
2022/07/16 08:04:23;;;;;;;8.10;3.45;;;;;;;24.99;42.84;94161.88;5126973;28;20023;-76
2022/07/16 08:06:48;;;;;;;9.20;3.35;;;;;;;25.07;41.41;94159.09;5127246;28;20031;-76
2022/07/16 08:09:14;;;;;;;14.32;3.22;;;;;;;25.13;42.25;94171.13;5127021;28;20024;-76
2022/07/16 08:11:39;;;;;;;8.40;2.15;;;;;;;25.13;41.64;94166.44;5126866;28;20035;-76
2022/07/16 08:14:05;;;;;;;8.55;2.17;;;;;;;25.12;41.76;94166.84;5126960;27;20314;-76
2022/07/16 08:16:30;;;;;;;7.30;2.55;;;;;;;25.09;41.72;94162.94;5126724;28;20043;-76
2022/07/16 08:18:56;;;;;;;4.97;2.50;;;;;;;25.20;40.98;94160.19;5126999;28;20270;-76
2022/07/16 08:21:21;;;;;;;10.10;2.40;;;;;;;25.28;41.40;94167.19;5126739;28;20031;-75
2022/07/16 08:26:31;;;;;;;11.60;2.67;;;;;;;25.52;41.00;94157.25;5126700;28;20058;-76
2022/07/16 08:28:56;;;;;;;7.75;2.65;;;;;;;25.57;41.65;94153.31;5126691;28;20031;-76
2022/07/16 08:31:22;;;;;;;13.88;2.08;;;;;;;25.59;41.93;94162.66;5126566;28;20027;-76
2022/07/16 08:33:47;;;;;;;7.25;2.38;;;;;;;25.75;41.82;94162.16;5126389;28;20023;-76
2022/07/16 08:36:13;;;;;;;11.57;2.60;;;;;;;25.93;40.27;94163.97;5126251;28;20369;-76
2022/07/16 08:38:38;;;;;;;7.15;2.42;;;;;;;26.02;41.17;94162.31;5126422;28;20035;-76
2022/07/16 08:41:05;;;;;;;5.93;2.20;;;;;;;26.08;39.80;94162.66;5126589;28;20072;-76
2022/07/16 08:43:30;;;;;;;11.68;2.40;;;;;;;26.12;40.97;94151.69;5126238;28;20028;-76
2022/07/16 08:45:56;;;;;;;11.35;2.38;;;;;;;26.13;39.17;94169.63;5126230;28;20035;-76
2022/07/16 08:48:24;;;;;;;10.48;2.60;;;;;;;26.07;40.35;94169.28;5126220;28;20031;-76
2022/07/16 08:50:52;;;;;;;19.40;2.58;;;;;;;26.18;41.76;94171.94;5126299;28;20087;-76
2022/07/16 08:53:22;;;;;;;9.63;2.90;;;;;;;26.21;41.21;94171.88;5126347;28;20027;-76
2022/07/16 08:55:49;;;;;;;13.05;2.33;;;;;;;26.19;40.52;94174.22;5126558;28;20054;-75
2022/07/16 08:58:15;;;;;;;8.65;2.15;;;;;;;26.22;39.10;94170.72;5125965;28;20047;-76
2022/07/16 09:00:40;;;;;;;5.35;2.17;;;;;;;26.22;38.78;94167.97;5125932;28;20024;-76
2022/07/16 09:03:06;;;;;;;9.10;1.98;;;;;;;26.27;40.58;94169.47;5126127;28;20030;-75
2022/07/16 09:05:31;;;;;;;9.02;2.13;;;;;;;26.41;42.17;94179.50;5125984;28;20023;-76
2022/07/16 09:07:57;;;;;;;6.57;2.00;;;;;;;26.48;39.94;94168.50;5125831;28;20077;-76
2022/07/16 09:10:33;;;;;;;6.22;1.75;;;;;;;26.48;40.45;94173.16;5125905;28;20019;-75
2022/07/16 09:12:59;;;;;;;5.05;2.17;;;;;;;26.52;41.42;94168.44;5125633;28;20035;-75
2022/07/16 09:15:32;;;;;;;5.60;1.85;;;;;;;26.56;39.51;94169.16;5125449;28;20245;-75
2022/07/16 09:18:27;;;;;;;6.05;2.00;;;;;;;26.69;37.25;94180.41;5125447;28;20035;-75
2022/07/16 09:21:00;;;;;;;6.68;1.90;;;;;;;26.68;37.86;94170.63;5121026;28;20104;-75
2022/07/16 09:23:29;;;;;;;7.25;2.17;;;;;;;26.81;37.21;94163.44;5125516;28;20023;-75
2022/07/16 09:26:06;;;;;;;18.83;2.22;;;;;;;26.87;35.66;94167.28;5125353;27;20203;-75
2022/07/16 09:28:43;;;;;;;5.43;2.25;;;;;;;26.89;37.07;94162.19;5125531;28;20032;-75
2022/07/16 09:31:28;;;;;;;7.40;2.45;;;;;;;27.07;37.39;94163.88;5125379;28;20064;-75
2022/07/16 09:34:14;;;;;;;5.45;2.08;;;;;;;27.18;37.27;94159.06;5125295;27;20050;-76
2022/07/16 09:36:55;;;;;;;5.10;1.92;;;;;;;27.26;37.57;94157.03;5125286;28;20087;-75
2022/07/16 09:39:20;;;;;;;3.67;2.47;;;;;;;27.31;36.05;94151.84;5125508;27;20348;-75
2022/07/16 09:41:47;;;;;;;5.53;2.05;;;;;;;27.31;37.14;94154.56;5125168;28;20023;-75
2022/07/16 09:44:19;;;;;;;7.72;3.08;;;;;;;27.42;35.13;94152.47;5125174;28;20051;-75
2022/07/16 09:47:07;;;;;;;4.85;2.10;;;;;;;27.51;35.91;94151.16;5125143;28;20016;-75
2022/07/16 09:49:36;;;;;;;6.00;2.53;;;;;;;27.59;36.12;94147.13;5124988;28;20122;-75
2022/07/16 09:52:03;;;;;;;10.90;3.30;;;;;;;27.68;35.27;94146.59;5125011;28;20083;-75
2022/07/16 09:54:32;;;;;;;10.05;2.30;;;;;;;27.77;34.71;94144.09;5124817;28;20092;-75
2022/07/16 09:57:09;;;;;;;8.00;2.30;;;;;;;27.87;34.83;94145.16;5124787;28;20069;-76
2022/07/16 09:59:35;;;;;;;4.57;2.00;;;;;;;27.91;33.82;94143.91;5124751;27;20027;-75
2022/07/16 10:02:02;;;;;;;8.40;2.55;;;;;;;27.94;34.75;94137.56;5124583;28;20101;-75
2022/07/16 10:04:28;;;;;;;6.18;1.77;;;;;;;28.06;34.46;94135.44;5124763;28;20026;-75
2022/07/16 10:06:54;;;;;;;10.85;2.20;;;;;;;28.17;32.73;94134.03;5124639;28;20028;-75
2022/07/16 10:09:21;;;;;;;5.20;2.40;;;;;;;28.19;32.94;94130.88;5122891;28;20054;-75
2022/07/16 10:11:47;;;;;;;12.13;2.33;;;;;;;28.21;34.03;94132.00;5124494;28;20206;-75
2022/07/16 10:14:13;;;;;;;3.83;2.47;;;;;;;28.25;34.13;94125.69;5124495;28;20092;-75
2022/07/16 10:16:45;;;;;;;5.35;2.20;;;;;;;28.43;33.81;94134.34;5124099;28;20047;-75
2022/07/16 10:19:10;;;;;;;;;;;;;;;28.57;31.91;94131.34;5124769;27;20199;-75
2022/07/16 10:21:36;;;;;;;4.32;1.73;;;;;;;28.56;32.21;94120.81;5124391;28;19911;-75
2022/07/16 10:24:10;;;;;;;14.93;2.83;;;;;;;28.61;32.40;94123.81;5124354;27;20314;-75
2022/07/16 10:26:36;;;;;;;3.38;2.03;;;;;;;28.71;32.13;94115.81;5124224;28;20027;-75
2022/07/16 10:29:03;;;;;;;5.47;2.05;;;;;;;28.81;30.67;94123.03;5124059;28;20027;-75
2022/07/16 10:31:37;;;;;;;9.80;2.33;;;;;;;28.89;31.34;94120.91;5124021;28;20034;-75
2022/07/16 10:34:14;;;;;;;3.15;1.95;;;;;;;28.98;29.68;94119.16;5122866;28;20080;-75
2022/07/16 10:36:59;;;;;;;5.63;2.83;;;;;;;28.97;29.22;94117.59;5123774;28;20039;-75
2022/07/16 10:39:26;;;;;;;5.50;2.35;;;;;;;28.98;30.85;94115.59;5123987;28;20087;-75
2022/07/16 10:41:57;;;;;;;6.70;1.80;;;;;;;28.90;30.19;94109.53;5123661;28;20063;-75
2022/07/16 10:44:26;;;;;;;7.20;2.17;;;;;;;28.92;30.55;94118.09;5123734;28;20023;-75
2022/07/16 10:47:00;;;;;;;5.78;1.73;;;;;;;28.95;31.07;94114.50;5123411;28;20034;-75
2022/07/16 10:49:28;;;;;;;9.50;1.98;;;;;;;28.90;30.85;94122.44;5123300;27;20214;-75
2022/07/16 10:52:03;;;;;;;6.05;1.77;;;;;;;28.93;29.08;94111.41;5123385;28;20023;-75
2022/07/16 10:54:36;;;;;;;3.97;1.67;;;;;;;28.97;29.64;94106.63;5123505;28;20129;-75
2022/07/16 10:57:10;;;;;;;12.32;2.72;;;;;;;29.05;30.87;94112.72;5123726;28;20213;-75
2022/07/16 10:59:40;;;;;;;6.93;2.58;;;;;;;29.22;29.89;94121.78;5123514;28;20366;-75
2022/07/16 11:02:09;;;;;;;8.77;2.40;;;;;;;29.36;30.01;94115.19;5123506;28;20031;-75
2022/07/16 11:04:38;;;;;;;5.22;1.77;;;;;;;29.43;30.31;94109.50;5123485;28;20020;-75
2022/07/16 11:07:18;;;;;;;4.93;1.85;;;;;;;29.50;29.11;94111.34;5123444;28;20020;-75
2022/07/16 11:09:46;;;;;;;4.57;1.77;;;;;;;29.43;30.37;94112.25;5123480;28;20252;-75
2022/07/16 11:12:12;;;;;;;6.72;1.65;;;;;;;29.49;29.37;94118.03;5123404;28;20332;-75
2022/07/16 11:14:39;;;;;;;4.35;1.85;;;;;;;29.43;30.30;94106.78;5123256;28;20024;-75
2022/07/16 11:17:04;;;;;;;3.80;2.10;;;;;;;29.45;29.74;94111.84;5123123;28;20052;-75
2022/07/16 11:19:35;;;;;;;10.13;1.75;;;;;;;29.54;28.84;94098.31;5123371;28;20317;-75
2022/07/16 11:22:02;;;;;;;5.00;2.00;;;;;;;29.60;30.14;94102.06;5122420;28;20020;-75
2022/07/16 11:24:29;;;;;;;11.60;2.30;;;;;;;29.57;31.58;94109.19;5123275;28;20037;-75
2022/07/16 11:26:56;;;;;;;9.25;1.85;;;;;;;29.58;31.51;94097.00;5123466;28;20039;-75
2022/07/16 11:29:24;;;;;;;5.63;2.00;;;;;;;29.68;29.45;94108.16;5123007;28;20072;-75
2022/07/16 11:31:50;;;;;;;3.90;1.85;;;;;;;29.63;29.93;94092.97;5123312;28;20098;-75
2022/07/16 11:34:18;;;;;;;5.32;1.85;;;;;;;29.67;30.28;94095.63;5123198;28;20202;-75
2022/07/16 11:36:48;;;;;;;8.73;2.55;;;;;;;29.76;29.87;94096.59;5122944;28;20031;-75